North Plains, Oregon
Current Conditions -  °F | °C
As of 8:53 AM on Sunday 23 Nov 2014 (Local Time) from KHIO Reporting Station
Overcast Overcast  
Wind Chill: 63°   Ceiling: 4300
Heat Index: 63°   Visibility: 10mi
Dew Point: 45°   Wind: 14mph
Humidity: 52%   Direction: 170°S
Pressure: 30.25"   Gusts: NA
Location:  45.6°N, 122.99°W
Report Text: KHIO 231653Z 17012KT 10SM BKN043 OVC050 17/07 A3025 RMK AO2 SLP244 T01720072
Loading
Personal Weather Stations






























Interactive Weather Map New forecast layout! Learn more

10-Day Weather Forecast

Advertisements
Track Severe Weather on mobile